sensor_id;sensor_type;location;lat;lon;timestamp;P1;durP1;ratioP1;P2;durP2;ratioP2
20348;SDS011;10332;50.208;18.988;2023-03-08T00:01:23;33.47;;;18.13;;
20348;SDS011;10332;50.208;18.988;2023-03-08T00:03:52;32.47;;;17.90;;
20348;SDS011;10332;50.208;18.988;2023-03-08T00:06:24;34.53;;;19.02;;
20348;SDS011;10332;50.208;18.988;2023-03-08T00:08:54;36.00;;;20.02;;
20348;SDS011;10332;50.208;18.988;2023-03-08T00:11:26;32.85;;;18.85;;
20348;SDS011;10332;50.208;18.988;2023-03-08T00:13:55;35.88;;;18.65;;
20348;SDS011;10332;50.208;18.988;2023-03-08T00:16:24;37.35;;;20.05;;
20348;SDS011;10332;50.208;18.988;2023-03-08T00:18:52;34.88;;;19.13;;
20348;SDS011;10332;50.208;18.988;2023-03-08T00:21:19;31.58;;;16.90;;
20348;SDS011;10332;50.208;18.988;2023-03-08T00:23:50;34.20;;;18.38;;
20348;SDS011;10332;50.208;18.988;2023-03-08T00:26:22;36.05;;;19.40;;
20348;SDS011;10332;50.208;18.988;2023-03-08T00:28:49;37.40;;;20.27;;
20348;SDS011;10332;50.208;18.988;2023-03-08T00:31:18;35.53;;;19.48;;
20348;SDS011;10332;50.208;18.988;2023-03-08T00:33:46;37.13;;;21.20;;
20348;SDS011;10332;50.208;18.988;2023-03-08T00:36:14;36.15;;;19.42;;
20348;SDS011;10332;50.208;18.988;2023-03-08T00:38:44;38.85;;;20.17;;
20348;SDS011;10332;50.208;18.988;2023-03-08T00:41:13;37.63;;;22.00;;
20348;SDS011;10332;50.208;18.988;2023-03-08T00:43:41;34.22;;;19.05;;
20348;SDS011;10332;50.208;18.988;2023-03-08T00:46:09;36.88;;;20.10;;
20348;SDS011;10332;50.208;18.988;2023-03-08T00:48:38;38.30;;;20.00;;
20348;SDS011;10332;50.208;18.988;2023-03-08T00:51:07;33.47;;;19.40;;
20348;SDS011;10332;50.208;18.988;2023-03-08T00:53:37;35.20;;;19.02;;
20348;SDS011;10332;50.208;18.988;2023-03-08T00:56:05;31.55;;;18.55;;
20348;SDS011;10332;50.208;18.988;2023-03-08T00:58:33;30.08;;;18.85;;
20348;SDS011;10332;50.208;18.988;2023-03-08T01:01:04;30.17;;;18.27;;
20348;SDS011;10332;50.208;18.988;2023-03-08T01:03:33;30.77;;;17.13;;
20348;SDS011;10332;50.208;18.988;2023-03-08T01:06:04;31.25;;;17.80;;
20348;SDS011;10332;50.208;18.988;2023-03-08T01:08:35;32.70;;;19.33;;
20348;SDS011;10332;50.208;18.988;2023-03-08T01:11:02;34.25;;;18.95;;
20348;SDS011;10332;50.208;18.988;2023-03-08T01:13:32;31.88;;;18.90;;
20348;SDS011;10332;50.208;18.988;2023-03-08T01:16:01;35.13;;;18.63;;
20348;SDS011;10332;50.208;18.988;2023-03-08T01:18:30;34.78;;;18.38;;
20348;SDS011;10332;50.208;18.988;2023-03-08T01:20:58;34.90;;;19.02;;
20348;SDS011;10332;50.208;18.988;2023-03-08T01:23:29;34.60;;;19.08;;
20348;SDS011;10332;50.208;18.988;2023-03-08T01:26:01;31.13;;;18.23;;
20348;SDS011;10332;50.208;18.988;2023-03-08T01:28:33;28.17;;;16.33;;
20348;SDS011;10332;50.208;18.988;2023-03-08T01:31:11;29.42;;;17.05;;
20348;SDS011;10332;50.208;18.988;2023-03-08T01:33:46;30.42;;;18.33;;
20348;SDS011;10332;50.208;18.988;2023-03-08T01:36:16;32.65;;;18.15;;
20348;SDS011;10332;50.208;18.988;2023-03-08T01:38:46;32.03;;;17.75;;
20348;SDS011;10332;50.208;18.988;2023-03-08T01:41:15;30.30;;;17.85;;
20348;SDS011;10332;50.208;18.988;2023-03-08T01:43:51;29.35;;;16.98;;
20348;SDS011;10332;50.208;18.988;2023-03-08T01:52:02;30.55;;;17.17;;
20348;SDS011;10332;50.208;18.988;2023-03-08T01:54:36;29.75;;;16.05;;
20348;SDS011;10332;50.208;18.988;2023-03-08T01:57:10;33.80;;;17.63;;
20348;SDS011;10332;50.208;18.988;2023-03-08T01:59:48;32.88;;;17.50;;
20348;SDS011;10332;50.208;18.988;2023-03-08T02:02:20;30.95;;;17.00;;
20348;SDS011;10332;50.208;18.988;2023-03-08T02:04:54;26.48;;;15.77;;
20348;SDS011;10332;50.208;18.988;2023-03-08T02:07:21;29.73;;;16.73;;
20348;SDS011;10332;50.208;18.988;2023-03-08T02:09:49;29.05;;;16.42;;
20348;SDS011;10332;50.208;18.988;2023-03-08T02:12:16;29.23;;;17.10;;
20348;SDS011;10332;50.208;18.988;2023-03-08T02:14:45;31.65;;;16.98;;
20348;SDS011;10332;50.208;18.988;2023-03-08T02:17:13;32.03;;;17.95;;
20348;SDS011;10332;50.208;18.988;2023-03-08T02:22:20;30.83;;;17.85;;
20348;SDS011;10332;50.208;18.988;2023-03-08T02:24:48;31.33;;;17.50;;
20348;SDS011;10332;50.208;18.988;2023-03-08T02:27:17;32.53;;;17.70;;
20348;SDS011;10332;50.208;18.988;2023-03-08T02:29:50;27.92;;;17.17;;
20348;SDS011;10332;50.208;18.988;2023-03-08T02:32:18;32.92;;;18.60;;
20348;SDS011;10332;50.208;18.988;2023-03-08T02:34:46;32.45;;;18.23;;
20348;SDS011;10332;50.208;18.988;2023-03-08T02:37:13;34.80;;;17.77;;
20348;SDS011;10332;50.208;18.988;2023-03-08T02:39:40;30.10;;;16.52;;
20348;SDS011;10332;50.208;18.988;2023-03-08T02:42:08;28.60;;;16.67;;
20348;SDS011;10332;50.208;18.988;2023-03-08T02:44:35;27.17;;;15.82;;
20348;SDS011;10332;50.208;18.988;2023-03-08T02:47:03;28.38;;;16.88;;
20348;SDS011;10332;50.208;18.988;2023-03-08T02:49:31;27.67;;;15.38;;
20348;SDS011;10332;50.208;18.988;2023-03-08T02:51:58;28.65;;;16.80;;
20348;SDS011;10332;50.208;18.988;2023-03-08T02:54:26;25.77;;;15.52;;
20348;SDS011;10332;50.208;18.988;2023-03-08T02:56:53;26.23;;;15.40;;
20348;SDS011;10332;50.208;18.988;2023-03-08T02:59:21;27.23;;;16.08;;
20348;SDS011;10332;50.208;18.988;2023-03-08T03:01:49;29.85;;;15.80;;
20348;SDS011;10332;50.208;18.988;2023-03-08T03:04:17;29.00;;;15.88;;
20348;SDS011;10332;50.208;18.988;2023-03-08T03:06:44;30.15;;;16.92;;
20348;SDS011;10332;50.208;18.988;2023-03-08T03:09:12;27.55;;;17.05;;
20348;SDS011;10332;50.208;18.988;2023-03-08T03:11:39;29.73;;;17.42;;
20348;SDS011;10332;50.208;18.988;2023-03-08T03:14:07;33.60;;;18.30;;
20348;SDS011;10332;50.208;18.988;2023-03-08T03:16:35;32.42;;;17.98;;
20348;SDS011;10332;50.208;18.988;2023-03-08T03:19:03;30.92;;;17.08;;
20348;SDS011;10332;50.208;18.988;2023-03-08T03:21:30;27.02;;;16.05;;
20348;SDS011;10332;50.208;18.988;2023-03-08T03:23:58;32.72;;;17.27;;
20348;SDS011;10332;50.208;18.988;2023-03-08T03:26:26;29.83;;;17.25;;
20348;SDS011;10332;50.208;18.988;2023-03-08T03:28:55;30.92;;;16.80;;
20348;SDS011;10332;50.208;18.988;2023-03-08T03:31:23;29.65;;;17.30;;
20348;SDS011;10332;50.208;18.988;2023-03-08T03:33:52;28.00;;;16.52;;
20348;SDS011;10332;50.208;18.988;2023-03-08T03:36:20;30.10;;;16.42;;
20348;SDS011;10332;50.208;18.988;2023-03-08T03:38:49;24.83;;;14.18;;
20348;SDS011;10332;50.208;18.988;2023-03-08T03:41:18;27.58;;;14.23;;
20348;SDS011;10332;50.208;18.988;2023-03-08T03:43:49;23.55;;;12.20;;
20348;SDS011;10332;50.208;18.988;2023-03-08T03:46:17;24.42;;;13.00;;
20348;SDS011;10332;50.208;18.988;2023-03-08T03:48:47;22.60;;;13.30;;
20348;SDS011;10332;50.208;18.988;2023-03-08T03:51:15;22.80;;;12.50;;
20348;SDS011;10332;50.208;18.988;2023-03-08T03:53:46;20.55;;;11.93;;
20348;SDS011;10332;50.208;18.988;2023-03-08T03:56:15;21.88;;;11.73;;
20348;SDS011;10332;50.208;18.988;2023-03-08T03:58:46;22.38;;;13.38;;
20348;SDS011;10332;50.208;18.988;2023-03-08T04:01:21;23.20;;;13.18;;
20348;SDS011;10332;50.208;18.988;2023-03-08T04:03:57;22.50;;;12.45;;
20348;SDS011;10332;50.208;18.988;2023-03-08T04:06:26;21.70;;;11.85;;
20348;SDS011;10332;50.208;18.988;2023-03-08T04:09:03;22.33;;;12.43;;
20348;SDS011;10332;50.208;18.988;2023-03-08T04:11:35;22.33;;;12.82;;
20348;SDS011;10332;50.208;18.988;2023-03-08T04:14:05;22.45;;;11.70;;
20348;SDS011;10332;50.208;18.988;2023-03-08T04:16:34;19.92;;;11.77;;
20348;SDS011;10332;50.208;18.988;2023-03-08T04:19:05;20.52;;;11.13;;
20348;SDS011;10332;50.208;18.988;2023-03-08T04:21:37;21.20;;;11.43;;
20348;SDS011;10332;50.208;18.988;2023-03-08T04:24:05;24.00;;;12.65;;
20348;SDS011;10332;50.208;18.988;2023-03-08T04:26:33;21.02;;;12.05;;
20348;SDS011;10332;50.208;18.988;2023-03-08T04:29:02;22.33;;;11.95;;
20348;SDS011;10332;50.208;18.988;2023-03-08T04:31:32;22.83;;;13.00;;
20348;SDS011;10332;50.208;18.988;2023-03-08T04:34:01;21.73;;;13.23;;
20348;SDS011;10332;50.208;18.988;2023-03-08T04:36:30;22.60;;;13.40;;
20348;SDS011;10332;50.208;18.988;2023-03-08T04:38:58;22.27;;;12.25;;
20348;SDS011;10332;50.208;18.988;2023-03-08T04:41:25;22.50;;;13.63;;
20348;SDS011;10332;50.208;18.988;2023-03-08T04:43:54;23.20;;;14.35;;
20348;SDS011;10332;50.208;18.988;2023-03-08T04:46:26;25.83;;;14.40;;
20348;SDS011;10332;50.208;18.988;2023-03-08T04:48:54;21.02;;;12.38;;
20348;SDS011;10332;50.208;18.988;2023-03-08T04:51:22;24.27;;;14.20;;
20348;SDS011;10332;50.208;18.988;2023-03-08T04:53:52;25.70;;;14.45;;
20348;SDS011;10332;50.208;18.988;2023-03-08T04:56:19;24.90;;;14.07;;
20348;SDS011;10332;50.208;18.988;2023-03-08T04:58:47;21.15;;;12.82;;
20348;SDS011;10332;50.208;18.988;2023-03-08T05:01:16;23.67;;;13.48;;
20348;SDS011;10332;50.208;18.988;2023-03-08T05:03:46;25.17;;;13.85;;
20348;SDS011;10332;50.208;18.988;2023-03-08T05:06:17;21.05;;;13.15;;
20348;SDS011;10332;50.208;18.988;2023-03-08T05:08:47;30.75;;;15.40;;
20348;SDS011;10332;50.208;18.988;2023-03-08T05:11:25;22.30;;;14.05;;
20348;SDS011;10332;50.208;18.988;2023-03-08T05:13:56;22.55;;;13.20;;
20348;SDS011;10332;50.208;18.988;2023-03-08T05:16:25;21.67;;;12.85;;
20348;SDS011;10332;50.208;18.988;2023-03-08T05:18:53;29.58;;;15.60;;
20348;SDS011;10332;50.208;18.988;2023-03-08T05:21:21;26.42;;;14.43;;
20348;SDS011;10332;50.208;18.988;2023-03-08T05:23:50;23.65;;;13.43;;
20348;SDS011;10332;50.208;18.988;2023-03-08T05:26:17;27.00;;;13.38;;
20348;SDS011;10332;50.208;18.988;2023-03-08T05:28:45;24.73;;;12.77;;
20348;SDS011;10332;50.208;18.988;2023-03-08T05:31:13;23.40;;;12.82;;
20348;SDS011;10332;50.208;18.988;2023-03-08T05:33:44;23.48;;;12.65;;
20348;SDS011;10332;50.208;18.988;2023-03-08T05:36:17;21.92;;;12.25;;
20348;SDS011;10332;50.208;18.988;2023-03-08T05:38:45;21.83;;;11.73;;
20348;SDS011;10332;50.208;18.988;2023-03-08T05:41:14;26.00;;;11.75;;
20348;SDS011;10332;50.208;18.988;2023-03-08T05:43:42;25.77;;;12.98;;
20348;SDS011;10332;50.208;18.988;2023-03-08T05:46:14;24.00;;;12.68;;
20348;SDS011;10332;50.208;18.988;2023-03-08T05:48:44;21.95;;;12.45;;
20348;SDS011;10332;50.208;18.988;2023-03-08T05:51:13;22.40;;;11.80;;
20348;SDS011;10332;50.208;18.988;2023-03-08T05:53:43;30.77;;;14.05;;
20348;SDS011;10332;50.208;18.988;2023-03-08T05:56:18;22.10;;;12.18;;
20348;SDS011;10332;50.208;18.988;2023-03-08T05:58:48;25.50;;;13.45;;
20348;SDS011;10332;50.208;18.988;2023-03-08T06:01:20;22.30;;;12.27;;
20348;SDS011;10332;50.208;18.988;2023-03-08T06:03:52;22.83;;;11.77;;
20348;SDS011;10332;50.208;18.988;2023-03-08T06:06:23;24.80;;;12.77;;
20348;SDS011;10332;50.208;18.988;2023-03-08T06:08:53;25.52;;;13.52;;
20348;SDS011;10332;50.208;18.988;2023-03-08T06:11:22;26.40;;;13.48;;
20348;SDS011;10332;50.208;18.988;2023-03-08T06:13:50;23.67;;;12.55;;
20348;SDS011;10332;50.208;18.988;2023-03-08T06:16:17;24.00;;;11.50;;
20348;SDS011;10332;50.208;18.988;2023-03-08T06:18:45;22.85;;;12.85;;
20348;SDS011;10332;50.208;18.988;2023-03-08T06:21:13;22.77;;;11.85;;
20348;SDS011;10332;50.208;18.988;2023-03-08T06:23:43;27.60;;;14.15;;
20348;SDS011;10332;50.208;18.988;2023-03-08T06:26:12;20.52;;;12.45;;
20348;SDS011;10332;50.208;18.988;2023-03-08T06:28:41;24.17;;;13.07;;
20348;SDS011;10332;50.208;18.988;2023-03-08T06:31:10;24.15;;;13.27;;
20348;SDS011;10332;50.208;18.988;2023-03-08T06:33:41;23.08;;;12.18;;
20348;SDS011;10332;50.208;18.988;2023-03-08T06:36:13;24.73;;;12.82;;
20348;SDS011;10332;50.208;18.988;2023-03-08T06:38:43;21.48;;;12.00;;
20348;SDS011;10332;50.208;18.988;2023-03-08T06:41:12;20.95;;;11.75;;
20348;SDS011;10332;50.208;18.988;2023-03-08T06:43:42;23.15;;;12.45;;
20348;SDS011;10332;50.208;18.988;2023-03-08T06:46:11;20.85;;;11.10;;
20348;SDS011;10332;50.208;18.988;2023-03-08T06:48:43;21.98;;;11.45;;
20348;SDS011;10332;50.208;18.988;2023-03-08T06:51:13;24.27;;;11.43;;
20348;SDS011;10332;50.208;18.988;2023-03-08T06:53:41;22.67;;;11.68;;
20348;SDS011;10332;50.208;18.988;2023-03-08T06:56:08;19.98;;;11.13;;
20348;SDS011;10332;50.208;18.988;2023-03-08T06:58:40;21.98;;;11.90;;
20348;SDS011;10332;50.208;18.988;2023-03-08T07:01:08;22.85;;;11.35;;
20348;SDS011;10332;50.208;18.988;2023-03-08T07:03:38;22.42;;;11.23;;
20348;SDS011;10332;50.208;18.988;2023-03-08T07:06:07;21.10;;;11.02;;
20348;SDS011;10332;50.208;18.988;2023-03-08T07:08:36;23.10;;;12.52;;
20348;SDS011;10332;50.208;18.988;2023-03-08T07:11:07;20.35;;;11.27;;
20348;SDS011;10332;50.208;18.988;2023-03-08T07:13:36;20.33;;;10.90;;
20348;SDS011;10332;50.208;18.988;2023-03-08T07:16:04;20.30;;;11.18;;
20348;SDS011;10332;50.208;18.988;2023-03-08T07:18:37;20.35;;;11.20;;
20348;SDS011;10332;50.208;18.988;2023-03-08T07:21:05;20.17;;;12.10;;
20348;SDS011;10332;50.208;18.988;2023-03-08T07:23:36;22.15;;;12.10;;
20348;SDS011;10332;50.208;18.988;2023-03-08T07:26:06;17.67;;;9.90;;
20348;SDS011;10332;50.208;18.988;2023-03-08T07:28:35;18.60;;;9.88;;
20348;SDS011;10332;50.208;18.988;2023-03-08T07:31:03;18.08;;;10.18;;
20348;SDS011;10332;50.208;18.988;2023-03-08T07:33:31;17.42;;;10.10;;
20348;SDS011;10332;50.208;18.988;2023-03-08T07:35:59;19.75;;;10.45;;
20348;SDS011;10332;50.208;18.988;2023-03-08T07:38:28;20.65;;;10.05;;
20348;SDS011;10332;50.208;18.988;2023-03-08T07:40:55;16.05;;;9.50;;
20348;SDS011;10332;50.208;18.988;2023-03-08T07:43:23;16.63;;;10.13;;
20348;SDS011;10332;50.208;18.988;2023-03-08T07:45:50;18.90;;;10.10;;
20348;SDS011;10332;50.208;18.988;2023-03-08T07:48:18;16.73;;;10.73;;
20348;SDS011;10332;50.208;18.988;2023-03-08T07:50:45;15.10;;;9.13;;
20348;SDS011;10332;50.208;18.988;2023-03-08T07:53:13;15.65;;;9.65;;
20348;SDS011;10332;50.208;18.988;2023-03-08T07:55:41;17.05;;;9.55;;
20348;SDS011;10332;50.208;18.988;2023-03-08T07:58:08;16.85;;;9.65;;
20348;SDS011;10332;50.208;18.988;2023-03-08T08:00:36;15.63;;;9.23;;
20348;SDS011;10332;50.208;18.988;2023-03-08T08:03:03;21.05;;;10.73;;
20348;SDS011;10332;50.208;18.988;2023-03-08T08:05:31;23.80;;;11.45;;
20348;SDS011;10332;50.208;18.988;2023-03-08T08:08:02;19.73;;;11.75;;
20348;SDS011;10332;50.208;18.988;2023-03-08T08:10:30;18.35;;;10.30;;
20348;SDS011;10332;50.208;18.988;2023-03-08T08:12:57;15.27;;;10.07;;
20348;SDS011;10332;50.208;18.988;2023-03-08T08:15:25;18.55;;;10.82;;
20348;SDS011;10332;50.208;18.988;2023-03-08T08:17:53;21.30;;;11.00;;
20348;SDS011;10332;50.208;18.988;2023-03-08T08:20:20;17.85;;;11.00;;
20348;SDS011;10332;50.208;18.988;2023-03-08T08:22:48;18.05;;;10.73;;
20348;SDS011;10332;50.208;18.988;2023-03-08T08:25:18;18.23;;;10.75;;
20348;SDS011;10332;50.208;18.988;2023-03-08T08:27:48;18.30;;;10.93;;
20348;SDS011;10332;50.208;18.988;2023-03-08T08:30:16;18.00;;;10.80;;
20348;SDS011;10332;50.208;18.988;2023-03-08T08:32:44;22.77;;;13.88;;
20348;SDS011;10332;50.208;18.988;2023-03-08T08:35:11;16.98;;;10.57;;
20348;SDS011;10332;50.208;18.988;2023-03-08T08:37:39;15.90;;;10.80;;
20348;SDS011;10332;50.208;18.988;2023-03-08T08:40:07;17.48;;;11.00;;
20348;SDS011;10332;50.208;18.988;2023-03-08T08:42:37;16.05;;;10.13;;
20348;SDS011;10332;50.208;18.988;2023-03-08T08:45:04;20.35;;;13.40;;
20348;SDS011;10332;50.208;18.988;2023-03-08T08:47:33;18.00;;;11.30;;
20348;SDS011;10332;50.208;18.988;2023-03-08T08:50:00;15.05;;;10.90;;
20348;SDS011;10332;50.208;18.988;2023-03-08T08:52:28;21.08;;;12.25;;
20348;SDS011;10332;50.208;18.988;2023-03-08T08:54:56;17.90;;;12.07;;
20348;SDS011;10332;50.208;18.988;2023-03-08T08:57:23;19.42;;;12.10;;
20348;SDS011;10332;50.208;18.988;2023-03-08T08:59:51;16.50;;;10.80;;
20348;SDS011;10332;50.208;18.988;2023-03-08T09:02:18;17.73;;;11.93;;
20348;SDS011;10332;50.208;18.988;2023-03-08T09:04:46;17.80;;;13.02;;
20348;SDS011;10332;50.208;18.988;2023-03-08T09:07:14;17.02;;;12.30;;
20348;SDS011;10332;50.208;18.988;2023-03-08T09:09:42;17.17;;;11.93;;
20348;SDS011;10332;50.208;18.988;2023-03-08T09:12:09;16.48;;;11.40;;
20348;SDS011;10332;50.208;18.988;2023-03-08T09:14:37;18.15;;;12.63;;
20348;SDS011;10332;50.208;18.988;2023-03-08T09:17:05;15.75;;;11.45;;
20348;SDS011;10332;50.208;18.988;2023-03-08T09:19:32;16.80;;;11.68;;
20348;SDS011;10332;50.208;18.988;2023-03-08T09:22:02;16.58;;;11.43;;
20348;SDS011;10332;50.208;18.988;2023-03-08T09:24:30;17.15;;;12.02;;
20348;SDS011;10332;50.208;18.988;2023-03-08T09:26:59;15.63;;;12.25;;
20348;SDS011;10332;50.208;18.988;2023-03-08T09:29:27;15.05;;;11.70;;
20348;SDS011;10332;50.208;18.988;2023-03-08T09:31:54;13.73;;;10.73;;
20348;SDS011;10332;50.208;18.988;2023-03-08T09:34:24;13.32;;;10.52;;
20348;SDS011;10332;50.208;18.988;2023-03-08T09:36:52;13.07;;;10.73;;
20348;SDS011;10332;50.208;18.988;2023-03-08T09:39:20;15.23;;;11.05;;
20348;SDS011;10332;50.208;18.988;2023-03-08T09:41:50;12.52;;;10.93;;
20348;SDS011;10332;50.208;18.988;2023-03-08T09:52:47;13.68;;;11.65;;
20348;SDS011;10332;50.208;18.988;2023-03-08T09:55:41;13.85;;;10.45;;
20348;SDS011;10332;50.208;18.988;2023-03-08T09:58:29;14.23;;;11.30;;
20348;SDS011;10332;50.208;18.988;2023-03-08T10:01:14;11.63;;;10.35;;
20348;SDS011;10332;50.208;18.988;2023-03-08T10:19:02;9.70;;;8.70;;
20348;SDS011;10332;50.208;18.988;2023-03-08T10:21:38;11.27;;;9.98;;
20348;SDS011;10332;50.208;18.988;2023-03-08T10:24:14;11.15;;;9.95;;
20348;SDS011;10332;50.208;18.988;2023-03-08T10:27:14;11.35;;;9.95;;
20348;SDS011;10332;50.208;18.988;2023-03-08T10:29:53;10.18;;;9.07;;
20348;SDS011;10332;50.208;18.988;2023-03-08T10:32:26;11.65;;;10.45;;
20348;SDS011;10332;50.208;18.988;2023-03-08T10:35:02;9.95;;;8.95;;
20348;SDS011;10332;50.208;18.988;2023-03-08T10:37:32;10.10;;;9.02;;
20348;SDS011;10332;50.208;18.988;2023-03-08T10:40:00;12.30;;;10.85;;
20348;SDS011;10332;50.208;18.988;2023-03-08T10:42:34;11.63;;;10.43;;
20348;SDS011;10332;50.208;18.988;2023-03-08T10:45:18;13.82;;;11.85;;
20348;SDS011;10332;50.208;18.988;2023-03-08T10:47:58;11.57;;;9.82;;
20348;SDS011;10332;50.208;18.988;2023-03-08T10:50:33;10.60;;;9.15;;
20348;SDS011;10332;50.208;18.988;2023-03-08T10:53:07;14.27;;;10.90;;
20348;SDS011;10332;50.208;18.988;2023-03-08T10:55:46;10.60;;;9.27;;
20348;SDS011;10332;50.208;18.988;2023-03-08T11:01:06;11.10;;;9.50;;
20348;SDS011;10332;50.208;18.988;2023-03-08T11:04:04;12.32;;;9.35;;
20348;SDS011;10332;50.208;18.988;2023-03-08T11:06:44;13.55;;;9.43;;
20348;SDS011;10332;50.208;18.988;2023-03-08T11:09:29;11.88;;;9.77;;
20348;SDS011;10332;50.208;18.988;2023-03-08T11:12:02;15.95;;;10.40;;
20348;SDS011;10332;50.208;18.988;2023-03-08T11:14:30;15.15;;;9.65;;
20348;SDS011;10332;50.208;18.988;2023-03-08T11:20:15;14.13;;;9.63;;
20348;SDS011;10332;50.208;18.988;2023-03-08T11:23:02;14.10;;;9.80;;
20348;SDS011;10332;50.208;18.988;2023-03-08T11:26:17;14.27;;;9.65;;
20348;SDS011;10332;50.208;18.988;2023-03-08T11:29:17;13.23;;;9.88;;
20348;SDS011;10332;50.208;18.988;2023-03-08T11:38:40;13.93;;;9.35;;
20348;SDS011;10332;50.208;18.988;2023-03-08T11:49:37;16.75;;;9.85;;
20348;SDS011;10332;50.208;18.988;2023-03-08T12:01:16;11.82;;;7.55;;
20348;SDS011;10332;50.208;18.988;2023-03-08T12:04:12;10.73;;;7.43;;
20348;SDS011;10332;50.208;18.988;2023-03-08T12:06:48;12.15;;;8.10;;
20348;SDS011;10332;50.208;18.988;2023-03-08T12:09:38;12.23;;;7.85;;
20348;SDS011;10332;50.208;18.988;2023-03-08T12:12:29;12.60;;;7.93;;
20348;SDS011;10332;50.208;18.988;2023-03-08T12:21:14;13.55;;;8.40;;
20348;SDS011;10332;50.208;18.988;2023-03-08T12:27:04;11.55;;;7.65;;
20348;SDS011;10332;50.208;18.988;2023-03-08T12:33:01;15.07;;;8.38;;
20348;SDS011;10332;50.208;18.988;2023-03-08T12:35:36;14.73;;;7.45;;
20348;SDS011;10332;50.208;18.988;2023-03-08T12:41:05;9.80;;;6.88;;
20348;SDS011;10332;50.208;18.988;2023-03-08T12:44:00;10.52;;;6.95;;
20348;SDS011;10332;50.208;18.988;2023-03-08T12:46:46;11.80;;;6.68;;
20348;SDS011;10332;50.208;18.988;2023-03-08T12:49:31;14.70;;;7.45;;
20348;SDS011;10332;50.208;18.988;2023-03-08T12:52:52;12.57;;;8.20;;
20348;SDS011;10332;50.208;18.988;2023-03-08T12:55:04;12.32;;;7.80;;
20348;SDS011;10332;50.208;18.988;2023-03-08T12:58:03;13.48;;;7.60;;
20348;SDS011;10332;50.208;18.988;2023-03-08T13:00:34;11.63;;;6.82;;
20348;SDS011;10332;50.208;18.988;2023-03-08T13:03:23;13.45;;;7.63;;
20348;SDS011;10332;50.208;18.988;2023-03-08T13:06:14;10.88;;;6.55;;
20348;SDS011;10332;50.208;18.988;2023-03-08T13:08:52;12.27;;;7.60;;
20348;SDS011;10332;50.208;18.988;2023-03-08T13:11:39;13.15;;;7.47;;
20348;SDS011;10332;50.208;18.988;2023-03-08T13:14:26;12.85;;;7.72;;
20348;SDS011;10332;50.208;18.988;2023-03-08T13:19:53;16.17;;;7.65;;
20348;SDS011;10332;50.208;18.988;2023-03-08T13:25:00;10.23;;;6.60;;
20348;SDS011;10332;50.208;18.988;2023-03-08T13:30:35;10.65;;;6.78;;
20348;SDS011;10332;50.208;18.988;2023-03-08T13:33:27;10.13;;;6.88;;
20348;SDS011;10332;50.208;18.988;2023-03-08T13:36:06;11.88;;;7.60;;
20348;SDS011;10332;50.208;18.988;2023-03-08T13:41:35;11.00;;;6.93;;
20348;SDS011;10332;50.208;18.988;2023-03-08T13:46:56;10.70;;;6.63;;
20348;SDS011;10332;50.208;18.988;2023-03-08T13:49:31;9.57;;;5.85;;
20348;SDS011;10332;50.208;18.988;2023-03-08T13:52:10;9.73;;;6.35;;
20348;SDS011;10332;50.208;18.988;2023-03-08T13:54:54;9.57;;;6.47;;
20348;SDS011;10332;50.208;18.988;2023-03-08T13:57:29;10.75;;;6.63;;
20348;SDS011;10332;50.208;18.988;2023-03-08T14:00:18;11.57;;;6.43;;
20348;SDS011;10332;50.208;18.988;2023-03-08T14:02:51;14.88;;;7.40;;
20348;SDS011;10332;50.208;18.988;2023-03-08T14:05:21;11.35;;;6.95;;
20348;SDS011;10332;50.208;18.988;2023-03-08T14:08:02;9.73;;;6.13;;
20348;SDS011;10332;50.208;18.988;2023-03-08T14:10:38;8.00;;;5.30;;
20348;SDS011;10332;50.208;18.988;2023-03-08T14:13:27;9.95;;;5.80;;
20348;SDS011;10332;50.208;18.988;2023-03-08T14:16:02;8.45;;;5.97;;
20348;SDS011;10332;50.208;18.988;2023-03-08T14:18:40;8.88;;;5.70;;
20348;SDS011;10332;50.208;18.988;2023-03-08T14:21:15;9.27;;;5.80;;
20348;SDS011;10332;50.208;18.988;2023-03-08T14:23:48;9.40;;;5.85;;
20348;SDS011;10332;50.208;18.988;2023-03-08T14:31:52;11.68;;;7.38;;
20348;SDS011;10332;50.208;18.988;2023-03-08T14:39:42;13.05;;;7.78;;
20348;SDS011;10332;50.208;18.988;2023-03-08T14:42:26;14.82;;;8.18;;
20348;SDS011;10332;50.208;18.988;2023-03-08T14:45:03;12.32;;;7.82;;
20348;SDS011;10332;50.208;18.988;2023-03-08T14:47:52;13.77;;;7.50;;
20348;SDS011;10332;50.208;18.988;2023-03-08T14:50:27;16.95;;;8.65;;
20348;SDS011;10332;50.208;18.988;2023-03-08T14:52:59;9.07;;;5.95;;
20348;SDS011;10332;50.208;18.988;2023-03-08T14:55:35;12.80;;;6.90;;
20348;SDS011;10332;50.208;18.988;2023-03-08T14:58:08;13.98;;;7.68;;
20348;SDS011;10332;50.208;18.988;2023-03-08T15:00:52;12.68;;;7.45;;
20348;SDS011;10332;50.208;18.988;2023-03-08T15:03:23;11.73;;;7.30;;
20348;SDS011;10332;50.208;18.988;2023-03-08T15:05:51;9.70;;;5.82;;
20348;SDS011;10332;50.208;18.988;2023-03-08T15:08:20;7.65;;;5.07;;
20348;SDS011;10332;50.208;18.988;2023-03-08T15:10:49;9.65;;;5.43;;
20348;SDS011;10332;50.208;18.988;2023-03-08T15:13:19;9.27;;;5.70;;
20348;SDS011;10332;50.208;18.988;2023-03-08T15:15:49;8.55;;;5.28;;
20348;SDS011;10332;50.208;18.988;2023-03-08T15:18:17;9.75;;;6.00;;
20348;SDS011;10332;50.208;18.988;2023-03-08T15:20:45;10.40;;;6.22;;
20348;SDS011;10332;50.208;18.988;2023-03-08T15:23:34;9.50;;;6.10;;
20348;SDS011;10332;50.208;18.988;2023-03-08T15:26:04;10.13;;;6.20;;
20348;SDS011;10332;50.208;18.988;2023-03-08T15:28:33;13.40;;;6.45;;
20348;SDS011;10332;50.208;18.988;2023-03-08T15:31:00;9.90;;;5.82;;
20348;SDS011;10332;50.208;18.988;2023-03-08T15:33:28;10.13;;;6.20;;
20348;SDS011;10332;50.208;18.988;2023-03-08T15:35:56;17.00;;;9.65;;
20348;SDS011;10332;50.208;18.988;2023-03-08T15:38:24;10.30;;;6.05;;
20348;SDS011;10332;50.208;18.988;2023-03-08T15:40:52;12.73;;;6.95;;
20348;SDS011;10332;50.208;18.988;2023-03-08T15:43:19;10.55;;;6.20;;
20348;SDS011;10332;50.208;18.988;2023-03-08T15:45:47;12.60;;;6.65;;
20348;SDS011;10332;50.208;18.988;2023-03-08T15:48:16;12.00;;;7.03;;
20348;SDS011;10332;50.208;18.988;2023-03-08T15:50:45;13.43;;;7.28;;
20348;SDS011;10332;50.208;18.988;2023-03-08T15:53:12;10.80;;;6.43;;
20348;SDS011;10332;50.208;18.988;2023-03-08T15:55:56;12.73;;;6.78;;
20348;SDS011;10332;50.208;18.988;2023-03-08T15:58:23;11.10;;;6.05;;
20348;SDS011;10332;50.208;18.988;2023-03-08T16:00:52;13.23;;;6.70;;
20348;SDS011;10332;50.208;18.988;2023-03-08T16:03:22;12.00;;;7.32;;
20348;SDS011;10332;50.208;18.988;2023-03-08T16:05:57;13.35;;;6.40;;
20348;SDS011;10332;50.208;18.988;2023-03-08T16:08:26;13.48;;;7.32;;
20348;SDS011;10332;50.208;18.988;2023-03-08T16:10:55;13.80;;;7.25;;
20348;SDS011;10332;50.208;18.988;2023-03-08T16:13:30;13.82;;;7.10;;
20348;SDS011;10332;50.208;18.988;2023-03-08T16:16:00;15.40;;;7.50;;
20348;SDS011;10332;50.208;18.988;2023-03-08T16:18:31;11.15;;;6.55;;
20348;SDS011;10332;50.208;18.988;2023-03-08T16:21:04;14.02;;;7.28;;
20348;SDS011;10332;50.208;18.988;2023-03-08T16:23:34;11.45;;;6.53;;